ADDS METAR Data INFO
IDs: Format: Raw Decoded Include TAF

Data at: 0930 UTC 25 Jun 2018

K2W6 250917Z AUTO 00000KT 10SM BKN095 21/20 A2998 RMK AO1
K2W6 250857Z AUTO 00000KT 10SM CLR 21/20 A2997 RMK AO1
K2W6 250837Z AUTO 00000KT 10SM CLR 21/20 A2996 RMK AO1
K2W6 250817Z AUTO 25003KT 10SM CLR 21/20 A2995 RMK AO1
K2W6 250757Z AUTO 28003KT 10SM CLR 21/20 A2994 RMK AO1
K2W6 250737Z AUTO 00000KT 10SM CLR 21/20 A2994 RMK AO1
K2W6 250717Z AUTO 00000KT 10SM CLR 20/20 A2994 RMK AO1
K2W6 250657Z AUTO 26004KT 10SM CLR 20/20 A2993 RMK AO1
K2W6 250637Z AUTO 00000KT 7SM CLR 20/20 A2993 RMK AO1
K2W6 250617Z AUTO 00000KT 7SM CLR 20/20 A2993 RMK AO1
K2W6 250557Z AUTO 00000KT 3SM CLR 20/20 A2993 RMK AO1
K2W6 250537Z AUTO 00000KT 10SM CLR 21/20 A2993 RMK AO1
K2W6 250517Z AUTO 00000KT 7SM CLR 21/20 A2993 RMK AO1
K2W6 250457Z AUTO 00000KT 5SM CLR 21/20 A2994 RMK AO1
K2W6 250437Z AUTO 00000KT 10SM SCT065 21/21 A2994 RMK AO1
K2W6 250425Z AUTO 00000KT 10SM SCT060 SCT070 21/21 A2994 RMK AO1
K2W6 250417Z AUTO 00000KT 10SM BKN060 BKN070 22/21 A2994 RMK AO1
K2W6 250357Z AUTO 22003KT 10SM BKN060 BKN070 22/21 A2994 RMK AO1
K2W6 250337Z AUTO 00000KT 10SM SCT017 BKN065 OVC070 22/21 A2995 RMK AO1
K2W6 250317Z AUTO 00000KT 10SM SCT006 BKN009 OVC019 22/21 A2996 RMK AO1
K2W6 250257Z AUTO 00000KT 10SM BKN004 BKN060 22/21 A2996 RMK AO1
K2W6 250237Z AUTO 23004KT 10SM CLR 22/21 A2994 RMK AO1
K2W6 250217Z AUTO 22004KT 10SM CLR 22/21 A2992 RMK AO1
K2W6 250157Z AUTO 22004KT 10SM SCT120 22/21 A2993 RMK AO1
K2W6 250137Z AUTO 24004KT 10SM BKN120 22/21 A2992 RMK AO1
K2W6 250117Z AUTO 24004KT 10SM BKN120 22/21 A2991 RMK AO1
K2W6 250057Z AUTO 20005KT 10SM BKN110 22/21 A2990 RMK AO1
K2W6 250037Z AUTO 20003KT 10SM SCT110 22/21 A2990 RMK AO1
K2W6 250017Z AUTO 00000KT 10SM CLR 23/21 A2989 RMK AO1
K2W6 242357Z AUTO 24003KT 10SM CLR 23/21 A2988 RMK AO1
K2W6 242337Z AUTO 22005KT 10SM CLR 23/21 A2988 RMK AO1
K2W6 242317Z AUTO 27004KT 10SM CLR 23/21 A2987 RMK AO1
K2W6 242257Z AUTO 23005KT 10SM CLR 23/21 A2988 RMK AO1
K2W6 242237Z AUTO 22003KT 10SM SCT009 SCT110 23/21 A2987 RMK AO1
K2W6 242217Z AUTO 18007KT 10SM SCT011 SCT044 BKN110 23/22 A2987 RMK AO1
K2W6 242157Z AUTO 18003KT 10SM SCT039 SCT050 OVC090 23/21 A2986 RMK AO1
K2W6 242137Z AUTO 21007KT 7SM SCT046 BKN080 OVC100 23/22 A2988 RMK AO1
K2W6 242117Z AUTO 20006KT 4SM SCT048 BKN075 OVC100 25/23 A2988 RMK AO1
K2W6 242057Z AUTO 16003KT 10SM SCT029 BKN075 OVC100 26/22 A2986 RMK AO1
K2W6 242037Z AUTO 13003KT 10SM SCT050 BKN075 BKN090 27/22 A2987 RMK AO1
K2W6 242017Z AUTO 15004KT 10SM SCT060 27/22 A2987 RMK AO1
K2W6 241957Z AUTO 16005KT 10SM SCT042 SCT060 BKN090 28/22 A2986 RMK AO1
K2W6 241937Z AUTO 15006KT 10SM SCT038 BKN048 OVC100 27/21 A2986 RMK AO1
K2W6 241917Z AUTO 24006KT 10SM SCT050 SCT065 31/21 A2986 RMK AO1
K2W6 241857Z AUTO 24004KT 10SM SCT065 30/20 A2986 RMK AO1
K2W6 241837Z AUTO 25005KT 10SM SCT049 SCT120 31/20 A2986 RMK AO1
K2W6 241817Z AUTO 20005KT 10SM SCT049 SCT070 SCT080 31/20 A2987 RMK AO1
K2W6 241757Z AUTO 23003KT 10SM SCT049 SCT070 SCT080 31/20 A2988 RMK AO1
K2W6 241737Z AUTO 21007KT 10SM SCT070 SCT085 31/21 A2988 RMK AO1
K2W6 241717Z AUTO 24007KT 10SM SCT070 SCT085 30/20 A2988 RMK AO1
K2W6 241657Z AUTO 21006KT 10SM SCT085 SCT110 30/20 A2988 RMK AO1
K2W6 241637Z AUTO 22003KT 10SM SCT110 31/20 A2988 RMK AO1
K2W6 241617Z AUTO 23005KT 10SM SCT120 30/20 A2988 RMK AO1
K2W6 241557Z AUTO 21004KT 10SM SCT120 30/20 A2988 RMK AO1
K2W6 241537Z AUTO 00000KT 10SM SCT120 30/20 A2989 RMK AO1
K2W6 241517Z AUTO 28005KT 10SM CLR 29/20 A2989 RMK AO1
K2W6 241457Z AUTO 31003KT 10SM CLR 30/20 A2989 RMK AO1
K2W6 241437Z AUTO 27005KT 10SM CLR 30/20 A2988 RMK AO1
K2W6 241417Z AUTO 25005KT 10SM CLR 29/21 A2988 RMK AO1
K2W6 241357Z AUTO 27004KT 10SM CLR 28/21 A2988 RMK AO1
K2W6 241337Z AUTO 26006KT 10SM CLR 28/21 A2989 RMK AO1
K2W6 241317Z AUTO 24004KT 10SM CLR 27/22 A2989 RMK AO1
K2W6 241257Z AUTO 25003KT 10SM CLR 27/22 A2989 RMK AO1
K2W6 241237Z AUTO 25004KT 10SM CLR 26/22 A2989 RMK AO1
K2W6 241217Z AUTO 24005KT 10SM CLR 25/22 A2990 RMK AO1
K2W6 241157Z AUTO 24004KT 10SM CLR 25/22 A2989 RMK AO1
K2W6 241137Z AUTO 22004KT 10SM SCT095 23/22 A2989 RMK AO1
K2W6 241117Z AUTO 00000KT 10SM SCT095 22/22 A2988 RMK AO1
K2W6 241057Z AUTO 00000KT 10SM BKN095 22/21 A2988 RMK AO1
K2W6 241037Z AUTO 00000KT 10SM OVC095 21/21 A2988 RMK AO1
K2W6 241017Z AUTO 00000KT 10SM BKN095 21/21 A2987 RMK AO1
K2W6 240957Z AUTO 00000KT 10SM CLR 21/20 A2987 RMK AO1
K2W6 240937Z AUTO 00000KT 7SM CLR 21/20 A2987 RMK AO1
K2W6 240917Z AUTO 00000KT 4SM CLR 21/20 A2986 RMK AO1
K2W6 240857Z AUTO 00000KT 5SM SCT095 21/20 A2985 RMK AO1
K2W6 240837Z AUTO 00000KT 10SM BKN095 21/21 A2986 RMK AO1
K2W6 240817Z AUTO 00000KT 10SM SCT095 21/21 A2986 RMK AO1
K2W6 240757Z AUTO 00000KT 10SM CLR 21/21 A2986 RMK AO1
K2W6 240737Z AUTO 26003KT 10SM CLR 21/21 A2985 RMK AO1
K2W6 240717Z AUTO 00000KT 7SM CLR 21/21 A2985 RMK AO1
K2W6 240657Z AUTO 00000KT 7SM CLR 21/21 A2985 RMK AO1
K2W6 240637Z AUTO 00000KT 7SM CLR 21/20 A2985 RMK AO1
K2W6 240617Z AUTO 00000KT 10SM CLR 22/21 A2985 RMK AO1
K2W6 240557Z AUTO 00000KT 10SM CLR 22/21 A2985 RMK AO1
K2W6 240537Z AUTO 21003KT 10SM CLR 22/21 A2985 RMK AO1
K2W6 240517Z AUTO 00000KT 7SM CLR 21/21 A2985 RMK AO1
K2W6 240457Z AUTO 00000KT 10SM CLR 21/21 A2985 RMK AO1
K2W6 240437Z AUTO 00000KT 7SM CLR 21/20 A2985 RMK AO1
K2W6 240417Z AUTO 00000KT 7SM CLR 21/20 A2985 RMK AO1
K2W6 240357Z AUTO 00000KT 7SM CLR 21/20 A2985 RMK AO1
K2W6 240337Z AUTO 00000KT 10SM CLR 21/20 A2985 RMK AO1
K2W6 240317Z AUTO 00000KT 7SM CLR 21/20 A2984 RMK AO1
K2W6 240257Z AUTO 00000KT 10SM CLR 21/20 A2985 RMK AO1
K2W6 240237Z AUTO 00000KT 10SM CLR 21/20 A2985 RMK AO1
K2W6 240217Z AUTO 00000KT 10SM CLR 21/20 A2984 RMK AO1
K2W6 240157Z AUTO 00000KT 10SM CLR 21/20 A2983 RMK AO1
K2W6 240137Z AUTO 00000KT 10SM CLR 21/20 A2983 RMK AO1
K2W6 240117Z AUTO 00000KT 10SM CLR 21/20 A2982 RMK AO1
K2W6 240057Z AUTO 00000KT 10SM CLR 22/20 A2983 RMK AO1
K2W6 240037Z AUTO 00000KT 10SM SCT023 SCT037 SCT042 22/20 A2983 RMK AO1
K2W6 240017Z AUTO 29009G15KT 10SM BKN037 OVC090 25/23 A2983 RMK AO1
K2W6 232357Z AUTO 00000KT 10SM OVC090 25/23 A2981 RMK AO1
K2W6 232337Z AUTO 00000KT 10SM SCT047 OVC100 26/23 A2981 RMK AO1
K2W6 232317Z AUTO 00000KT 10SM SCT046 BKN110 25/23 A2981 RMK AO1
K2W6 232257Z AUTO 00000KT 10SM SCT033 SCT043 26/23 A2981 RMK AO1
K2W6 232237Z AUTO 00000KT 10SM BKN033 26/23 A2979 RMK AO1
K2W6 232217Z AUTO 00000KT 10SM SCT110 27/23 A2978 RMK AO1
K2W6 232157Z AUTO 00000KT 10SM BKN120 28/21 A2978 RMK AO1
K2W6 232137Z AUTO 18004KT 10SM SCT030 OVC120 28/22 A2978 RMK AO1